createdAt,value
2018-10-06T00:02:24.564Z,27.09
2018-10-06T00:04:52.035Z,27.11
2018-10-06T00:07:18.764Z,27.08
2018-10-06T00:09:45.525Z,27.12
2018-10-06T00:12:12.268Z,27.10
2018-10-06T00:14:38.945Z,27.11
2018-10-06T00:17:05.680Z,27.19
2018-10-06T00:19:32.354Z,27.21
2018-10-06T00:21:59.026Z,27.22
2018-10-06T00:24:25.725Z,27.19
2018-10-06T00:26:52.500Z,27.19
2018-10-06T00:29:19.239Z,27.25
2018-10-06T00:31:45.955Z,27.27
2018-10-06T00:34:12.764Z,27.29
2018-10-06T00:39:06.011Z,27.31
2018-10-06T00:41:34.026Z,27.33
2018-10-06T00:43:59.490Z,27.38
2018-10-06T00:46:26.220Z,27.44
2018-10-06T00:48:52.920Z,27.44
2018-10-06T00:51:19.594Z,27.40
2018-10-06T00:53:46.375Z,27.43
2018-10-06T00:56:14.429Z,27.45
2018-10-06T00:58:39.903Z,27.49
2018-10-06T01:01:06.537Z,27.53
2018-10-06T01:03:36.685Z,27.54
2018-10-06T01:06:03.423Z,27.55
2018-10-06T01:08:31.487Z,27.52
2018-10-06T01:10:58.129Z,27.55
2018-10-06T01:13:23.622Z,27.60
2018-10-06T01:15:50.364Z,27.63
2018-10-06T01:18:17.031Z,27.64
2018-10-06T01:20:43.725Z,27.74
2018-10-06T01:23:10.459Z,27.67
2018-10-06T01:25:40.467Z,27.74
2018-10-06T01:28:07.204Z,27.75
2018-10-06T01:30:33.920Z,27.78
2018-10-06T01:33:00.587Z,27.83
2018-10-06T01:35:27.352Z,27.87
2018-10-06T01:37:57.560Z,27.87
2018-10-06T01:40:27.638Z,27.91
2018-10-06T01:42:54.339Z,27.89
2018-10-06T01:45:21.221Z,27.91
2018-10-06T01:47:48.062Z,27.97
2018-10-06T01:50:14.834Z,28.05
2018-10-06T01:52:41.571Z,28.05
2018-10-06T01:55:08.311Z,28.10
2018-10-06T01:57:35.001Z,28.14
2018-10-06T02:00:01.689Z,28.10
2018-10-06T02:02:28.379Z,28.11
2018-10-06T02:04:57.088Z,28.17
2018-10-06T02:07:22.144Z,28.14
2018-10-06T02:09:48.957Z,28.18
2018-10-06T02:12:16.986Z,28.19
2018-10-06T02:14:42.405Z,28.31
2018-10-06T02:17:09.209Z,28.34
2018-10-06T02:19:35.870Z,28.32
2018-10-06T02:22:02.655Z,28.30
2018-10-06T02:24:29.342Z,28.36
2018-10-06T02:26:56.027Z,28.45
2018-10-06T02:29:22.702Z,28.42
2018-10-06T02:31:52.053Z,28.43
2018-10-06T02:34:20.038Z,28.51
2018-10-06T02:36:45.470Z,28.46
2018-10-06T02:39:12.095Z,28.58
2018-10-06T02:41:38.857Z,28.53
2018-10-06T02:44:05.576Z,28.52
2018-10-06T02:46:32.265Z,28.60
2018-10-06T02:48:58.944Z,28.58
2018-10-06T02:51:25.621Z,28.64
2018-10-06T02:53:52.314Z,28.69
2018-10-06T02:56:19.003Z,28.69
2018-10-06T02:58:45.692Z,28.77
2018-10-06T03:01:12.372Z,28.86
2018-10-06T03:03:39.045Z,28.77
2018-10-06T03:06:05.819Z,28.83
2018-10-06T03:08:32.592Z,28.86
2018-10-06T03:11:00.599Z,28.89
2018-10-06T03:13:27.288Z,28.91
2018-10-06T03:15:52.618Z,28.91
2018-10-06T03:18:21.424Z,29.00
2018-10-06T03:20:49.025Z,29.02
2018-10-06T03:23:15.780Z,28.96
2018-10-06T03:25:42.570Z,29.08
2018-10-06T03:28:09.244Z,29.09
2018-10-06T03:30:36.036Z,29.08
2018-10-06T03:33:02.802Z,29.13
2018-10-06T03:35:29.487Z,29.13
2018-10-06T03:37:58.653Z,29.20
2018-10-06T03:40:25.347Z,29.19
2018-10-06T03:42:52.054Z,29.27
2018-10-06T03:45:21.752Z,29.24
2018-10-06T03:47:48.593Z,29.28
2018-10-06T03:50:15.296Z,29.29
2018-10-06T03:52:41.973Z,29.30
2018-10-06T03:55:08.656Z,29.29
2018-10-06T03:57:35.339Z,29.26
2018-10-06T04:00:02.032Z,29.29
2018-10-06T04:02:28.857Z,29.37
2018-10-06T04:04:55.494Z,29.34
2018-10-06T04:07:22.171Z,29.37
2018-10-06T04:09:48.850Z,29.38
2018-10-06T04:12:16.617Z,29.39
2018-10-06T04:14:43.462Z,29.42
2018-10-06T04:17:10.047Z,29.40
2018-10-06T04:19:38.103Z,29.48
2018-10-06T04:22:03.366Z,29.45
2018-10-06T04:24:30.020Z,29.49
2018-10-06T04:26:56.664Z,29.53
2018-10-06T04:29:23.303Z,29.54
2018-10-06T04:31:50.006Z,29.49
2018-10-06T04:34:16.989Z,29.57
2018-10-06T04:36:43.626Z,29.60
2018-10-06T04:39:10.280Z,29.58
2018-10-06T04:41:36.929Z,29.59
2018-10-06T04:44:03.647Z,29.65
2018-10-06T04:46:30.289Z,29.58
2018-10-06T04:48:58.578Z,29.52
2018-10-06T04:51:23.629Z,29.49
2018-10-06T04:53:51.306Z,29.43
2018-10-06T04:56:17.944Z,29.38
2018-10-06T04:58:44.685Z,29.34
2018-10-06T05:01:12.421Z,29.31
2018-10-06T05:03:41.657Z,29.40
2018-10-06T05:06:08.387Z,29.41
2018-10-06T05:08:38.142Z,29.28
2018-10-06T05:11:04.789Z,29.26
2018-10-06T05:13:31.459Z,29.23
2018-10-06T05:15:58.114Z,29.17
2018-10-06T05:18:24.718Z,29.21
2018-10-06T05:20:52.355Z,29.29
2018-10-06T05:23:18.077Z,29.03
2018-10-06T05:25:48.171Z,27.72
2018-10-06T05:28:14.808Z,27.74
2018-10-06T05:30:41.488Z,28.68
2018-10-06T05:33:09.192Z,28.83
2018-10-06T05:35:34.795Z,28.97
2018-10-06T05:38:01.457Z,28.98
2018-10-06T05:40:28.098Z,29.03
2018-10-06T05:42:54.821Z,28.98
2018-10-06T05:45:21.461Z,28.94
2018-10-06T05:47:48.112Z,28.89
2018-10-06T05:50:14.782Z,28.92
2018-10-06T05:52:41.431Z,28.87
2018-10-06T05:55:08.195Z,28.88
2018-10-06T05:57:34.843Z,28.92
2018-10-06T06:00:01.518Z,28.86
2018-10-06T06:02:28.189Z,28.86
2018-10-06T06:04:56.064Z,28.90
2018-10-06T06:07:21.724Z,28.84
2018-10-06T06:09:48.391Z,28.82
2018-10-06T06:12:19.613Z,28.76
2018-10-06T06:14:41.843Z,28.63
2018-10-06T06:17:08.492Z,28.54
2018-10-06T06:19:35.150Z,28.52
2018-10-06T06:22:01.857Z,28.52
2018-10-06T06:24:28.520Z,28.47
2018-10-06T06:26:55.290Z,28.52
2018-10-06T06:29:21.954Z,28.51
2018-10-06T06:31:48.769Z,28.50
2018-10-06T06:34:15.459Z,28.52
2018-10-06T06:36:42.163Z,28.53
2018-10-06T06:39:08.840Z,28.50
2018-10-06T06:41:35.535Z,28.56
2018-10-06T06:44:02.311Z,28.58
2018-10-06T06:46:28.922Z,28.60
2018-10-06T06:48:55.643Z,28.53
2018-10-06T06:51:22.336Z,28.68
2018-10-06T06:53:48.979Z,28.64
2018-10-06T06:56:15.705Z,28.66
2018-10-06T06:58:42.345Z,28.67
2018-10-06T07:01:10.406Z,28.69
2018-10-06T07:03:35.755Z,28.73
2018-10-06T07:06:02.394Z,28.70
2018-10-06T07:08:29.067Z,28.70
2018-10-06T07:10:55.747Z,28.74
2018-10-06T07:13:22.415Z,28.66
2018-10-06T07:15:49.073Z,28.75
2018-10-06T07:18:15.723Z,28.77
2018-10-06T07:20:42.366Z,28.85
2018-10-06T07:23:10.238Z,28.81
2018-10-06T07:25:35.691Z,28.82
2018-10-06T07:28:02.397Z,28.84
2018-10-06T07:30:29.037Z,28.86
2018-10-06T07:32:55.704Z,28.91
2018-10-06T07:35:22.417Z,28.90
2018-10-06T07:37:49.053Z,28.90
2018-10-06T07:40:21.203Z,29.01
2018-10-06T07:42:45.276Z,29.01
2018-10-06T07:45:11.984Z,28.92
2018-10-06T07:47:38.688Z,29.04
2018-10-06T07:50:05.315Z,29.05
2018-10-06T07:52:31.965Z,29.12
2018-10-06T07:54:58.637Z,29.18
2018-10-06T07:57:25.301Z,29.17
2018-10-06T07:59:51.967Z,29.17
2018-10-06T08:02:18.617Z,29.16
2018-10-06T08:04:45.357Z,29.12
2018-10-06T08:07:11.999Z,29.32
2018-10-06T08:09:38.669Z,29.36
2018-10-06T08:12:05.352Z,29.31
2018-10-06T08:14:32.010Z,29.30
2018-10-06T08:16:58.659Z,29.29
2018-10-06T08:19:25.369Z,29.34
2018-10-06T08:21:52.072Z,29.29
2018-10-06T08:24:18.767Z,29.41
2018-10-06T08:26:45.405Z,29.44
2018-10-06T08:29:12.148Z,29.37
2018-10-06T08:31:38.873Z,29.38
2018-10-06T08:34:05.637Z,29.47
2018-10-06T08:36:32.432Z,29.53
2018-10-06T08:38:59.073Z,29.52
2018-10-06T08:41:25.819Z,29.54
2018-10-06T08:43:52.618Z,29.45
2018-10-06T08:46:19.373Z,29.50
2018-10-06T08:48:46.142Z,29.52
2018-10-06T08:51:12.811Z,29.59
2018-10-06T08:53:39.564Z,29.60
2018-10-06T08:56:06.328Z,29.51
2018-10-06T08:58:32.925Z,29.63
2018-10-06T09:00:59.573Z,29.59
2018-10-06T09:03:26.275Z,29.55
2018-10-06T09:05:53.011Z,29.66
2018-10-06T09:08:19.787Z,29.67
2018-10-06T09:10:46.738Z,29.78
2018-10-06T09:13:13.338Z,29.77
2018-10-06T09:15:40.044Z,29.74
2018-10-06T09:18:06.686Z,29.77
2018-10-06T09:20:33.332Z,29.76
2018-10-06T09:22:59.970Z,29.78
2018-10-06T09:25:26.729Z,29.79
2018-10-06T09:27:53.381Z,29.83
2018-10-06T09:30:20.179Z,29.84
2018-10-06T09:32:46.847Z,29.84
2018-10-06T09:35:13.531Z,29.82
2018-10-06T09:37:40.228Z,29.89
2018-10-06T09:40:06.884Z,29.88
2018-10-06T09:42:33.873Z,29.87
2018-10-06T09:45:00.351Z,29.86
2018-10-06T09:47:27.004Z,29.72
2018-10-06T09:49:55.062Z,29.86
2018-10-06T09:52:20.456Z,29.88
2018-10-06T09:54:47.116Z,29.80
2018-10-06T09:57:14.765Z,29.85
2018-10-06T09:59:40.502Z,29.76
2018-10-06T10:02:09.917Z,29.84
2018-10-06T10:04:36.746Z,29.78
2018-10-06T10:07:03.369Z,29.76
2018-10-06T10:09:30.185Z,29.77
2018-10-06T10:11:56.750Z,29.67
2018-10-06T10:14:23.479Z,29.72
2018-10-06T10:16:50.233Z,29.86
2018-10-06T10:19:16.777Z,29.84
2018-10-06T10:21:43.574Z,29.90
2018-10-06T10:24:10.183Z,29.88
2018-10-06T10:26:36.969Z,29.89
2018-10-06T10:29:03.615Z,29.92
2018-10-06T10:31:30.296Z,29.82
2018-10-06T10:33:57.129Z,29.86
2018-10-06T10:36:23.776Z,29.88
2018-10-06T10:38:50.461Z,29.89
2018-10-06T10:41:17.110Z,29.87
2018-10-06T10:43:43.896Z,29.80
2018-10-06T10:46:10.605Z,29.80
2018-10-06T10:48:37.281Z,29.80
2018-10-06T10:51:03.953Z,29.82
2018-10-06T10:53:30.629Z,29.75
2018-10-06T10:55:57.253Z,29.78
2018-10-06T10:58:23.912Z,29.71
2018-10-06T11:00:50.598Z,29.75
2018-10-06T11:03:17.610Z,29.71
2018-10-06T11:05:44.279Z,29.74
2018-10-06T11:08:11.133Z,29.78
2018-10-06T11:10:37.841Z,29.73
2018-10-06T11:13:04.482Z,29.79
2018-10-06T11:15:34.438Z,29.30
2018-10-06T11:18:01.086Z,29.10
2018-10-06T11:20:27.802Z,29.41
2018-10-06T11:22:54.589Z,29.62
2018-10-06T11:25:21.274Z,29.60
2018-10-06T11:27:51.503Z,29.59
2018-10-06T11:30:18.151Z,29.63
2018-10-06T11:32:44.786Z,29.61
2018-10-06T11:35:11.491Z,29.63
2018-10-06T11:37:38.275Z,29.58
2018-10-06T11:40:04.927Z,29.57
2018-10-06T11:42:31.566Z,29.62
2018-10-06T11:44:58.260Z,29.69
2018-10-06T11:47:24.983Z,29.66
2018-10-06T11:49:51.702Z,29.49
2018-10-06T11:52:18.307Z,29.70
2018-10-06T11:54:44.951Z,29.76
2018-10-06T11:57:16.732Z,29.78
2018-10-06T11:59:45.953Z,29.64
2018-10-06T12:02:15.590Z,29.68
2018-10-06T12:04:42.267Z,29.75
2018-10-06T12:07:10.154Z,29.70
2018-10-06T12:09:35.728Z,29.71
2018-10-06T12:12:02.414Z,29.72
2018-10-06T12:14:29.056Z,29.69
2018-10-06T12:16:57.042Z,29.72
2018-10-06T12:19:22.468Z,29.76
2018-10-06T12:21:49.137Z,29.81
2018-10-06T12:24:15.899Z,29.79
2018-10-06T12:26:42.689Z,29.80
2018-10-06T12:29:09.418Z,29.87
2018-10-06T12:31:36.115Z,29.77
2018-10-06T12:34:02.812Z,29.81
2018-10-06T12:36:29.508Z,29.92
2018-10-06T12:38:58.997Z,29.83
2018-10-06T12:41:25.761Z,29.95
2018-10-06T12:43:52.381Z,29.86
2018-10-06T12:46:19.905Z,29.83
2018-10-06T12:48:48.045Z,29.82
2018-10-06T12:51:13.332Z,29.86
2018-10-06T12:53:39.982Z,29.86
2018-10-06T12:56:06.773Z,29.90
2018-10-06T12:58:33.432Z,29.94
2018-10-06T13:01:00.064Z,29.91
2018-10-06T13:03:26.825Z,29.86
2018-10-06T13:05:53.472Z,29.87
2018-10-06T13:08:20.266Z,29.92
2018-10-06T13:10:47.031Z,29.94
2018-10-06T13:13:13.685Z,29.94
2018-10-06T13:15:40.402Z,29.91
2018-10-06T13:18:10.328Z,29.92
2018-10-06T13:20:39.912Z,29.97
2018-10-06T13:23:06.577Z,29.92
2018-10-06T13:25:33.299Z,29.94
2018-10-06T13:27:59.982Z,29.94
2018-10-06T13:30:26.772Z,29.87
2018-10-06T13:32:55.427Z,29.82
2018-10-06T13:35:20.055Z,29.86
2018-10-06T13:37:46.821Z,29.82
2018-10-06T13:40:13.475Z,29.90
2018-10-06T13:42:40.294Z,29.80
2018-10-06T13:45:07.005Z,29.82
2018-10-06T13:47:33.640Z,29.79
2018-10-06T13:50:00.524Z,29.81
2018-10-06T13:52:30.275Z,29.80
2018-10-06T13:54:56.963Z,29.76
2018-10-06T13:57:23.713Z,29.83
2018-10-06T13:59:54.321Z,29.74
2018-10-06T14:02:23.051Z,29.76
2018-10-06T14:04:49.717Z,29.73
2018-10-06T14:07:16.408Z,29.73
2018-10-06T14:09:43.135Z,29.72
2018-10-06T14:12:09.738Z,29.66
2018-10-06T14:14:36.442Z,29.65
2018-10-06T14:17:04.209Z,29.65
2018-10-06T14:19:29.805Z,29.68
2018-10-06T14:21:56.558Z,29.61
2018-10-06T14:24:23.200Z,29.58
2018-10-06T14:26:50.120Z,29.58
2018-10-06T14:29:18.020Z,29.53
2018-10-06T14:31:43.469Z,29.49
2018-10-06T14:34:10.183Z,29.49
2018-10-06T14:36:36.825Z,29.51
2018-10-06T14:39:06.886Z,29.41
2018-10-06T14:41:33.539Z,29.48
2018-10-06T14:44:00.195Z,29.41
2018-10-06T14:46:26.852Z,29.40
2018-10-06T14:48:53.573Z,29.44
2018-10-06T14:51:20.302Z,29.49
2018-10-06T14:53:46.943Z,29.42
2018-10-06T14:56:13.590Z,29.37
2018-10-06T14:58:40.304Z,29.26
2018-10-06T15:01:06.952Z,29.20
2018-10-06T15:03:33.783Z,29.25
2018-10-06T15:06:00.354Z,29.23
2018-10-06T15:08:26.993Z,29.18
2018-10-06T15:10:53.651Z,29.17
2018-10-06T15:13:20.289Z,29.17
2018-10-06T15:15:46.948Z,29.16
2018-10-06T15:18:13.602Z,29.06
2018-10-06T15:20:40.272Z,28.97
2018-10-06T15:23:06.899Z,29.11
2018-10-06T15:25:35.291Z,29.09
2018-10-06T15:28:00.385Z,29.05
2018-10-06T15:30:28.650Z,28.91
2018-10-06T15:32:53.697Z,29.04
2018-10-06T15:35:20.365Z,29.03
2018-10-06T15:37:50.026Z,28.92
2018-10-06T15:40:16.637Z,29.05
2018-10-06T15:42:46.784Z,29.02
2018-10-06T15:45:13.393Z,29.06
2018-10-06T15:47:40.036Z,28.97
2018-10-06T15:50:06.745Z,29.07
2018-10-06T15:52:33.413Z,29.00
2018-10-06T15:55:00.051Z,29.10
2018-10-06T15:57:26.717Z,29.05
2018-10-06T15:59:53.389Z,28.93
2018-10-06T16:02:20.036Z,29.06
2018-10-06T16:04:46.671Z,29.20
2018-10-06T16:07:13.320Z,29.20
2018-10-06T16:09:39.962Z,29.20
2018-10-06T16:12:06.598Z,29.22
2018-10-06T16:14:33.256Z,29.29
2018-10-06T16:16:59.904Z,29.30
2018-10-06T16:19:26.622Z,29.26
2018-10-06T16:21:53.269Z,29.15
2018-10-06T16:24:19.965Z,29.41
2018-10-06T16:26:46.681Z,29.33
2018-10-06T16:29:13.321Z,29.38
2018-10-06T16:31:39.973Z,29.46
2018-10-06T16:34:06.722Z,29.52
2018-10-06T16:36:35.512Z,29.53
2018-10-06T16:39:02.192Z,29.60
2018-10-06T16:41:28.832Z,29.55
2018-10-06T16:43:55.503Z,29.48
2018-10-06T16:46:22.160Z,29.51
2018-10-06T16:48:48.875Z,29.54
2018-10-06T16:51:15.526Z,29.66
2018-10-06T16:53:42.175Z,29.70
2018-10-06T16:56:10.131Z,29.70
2018-10-06T16:58:35.469Z,29.69
2018-10-06T17:01:02.128Z,29.59
2018-10-06T17:03:28.768Z,29.66
2018-10-06T17:05:55.539Z,29.72
2018-10-06T17:08:22.152Z,29.72
2018-10-06T17:10:48.832Z,29.75
2018-10-06T17:13:15.524Z,29.68
2018-10-06T17:15:42.161Z,29.71
2018-10-06T17:18:08.875Z,29.66
2018-10-06T17:20:35.568Z,29.69
2018-10-06T17:23:02.203Z,29.76
2018-10-06T17:25:28.812Z,29.82
2018-10-06T17:27:55.545Z,29.85
2018-10-06T17:30:22.253Z,29.82
2018-10-06T17:32:49.023Z,29.92
2018-10-06T17:35:15.735Z,29.86
2018-10-06T17:37:42.388Z,29.79
2018-10-06T17:40:09.027Z,29.89
2018-10-06T17:42:35.704Z,29.87
2018-10-06T17:45:02.344Z,29.88
2018-10-06T17:47:29.046Z,29.99
2018-10-06T17:49:55.776Z,29.83
2018-10-06T17:52:22.376Z,29.87
2018-10-06T17:54:49.024Z,29.91
2018-10-06T17:57:15.677Z,29.87
2018-10-06T17:59:42.449Z,29.99
2018-10-06T18:02:09.110Z,29.89
2018-10-06T18:04:35.747Z,29.95
2018-10-06T18:07:02.474Z,29.90
2018-10-06T18:09:29.124Z,29.96
2018-10-06T18:11:55.885Z,29.84
2018-10-06T18:14:24.157Z,29.87
2018-10-06T18:16:51.346Z,29.81
2018-10-06T18:19:15.909Z,29.74
2018-10-06T18:21:42.592Z,29.87
2018-10-06T18:24:09.206Z,29.73
2018-10-06T18:26:35.907Z,29.74
2018-10-06T18:29:02.672Z,29.77
2018-10-06T18:31:29.380Z,29.70
2018-10-06T18:33:56.040Z,29.78
2018-10-06T18:36:22.839Z,29.75
2018-10-06T18:38:49.432Z,29.71
2018-10-06T18:41:17.470Z,29.81
2018-10-06T18:43:42.880Z,29.79
2018-10-06T18:46:09.433Z,29.77
2018-10-06T18:48:36.164Z,29.75
2018-10-06T18:51:02.822Z,29.77
2018-10-06T18:53:29.469Z,29.78
2018-10-06T18:55:56.171Z,29.78
2018-10-06T18:58:22.806Z,29.79
2018-10-06T19:00:49.460Z,29.83
2018-10-06T19:03:16.199Z,29.78
2018-10-06T19:05:42.818Z,29.83
2018-10-06T19:08:11.137Z,29.82
2018-10-06T19:10:36.200Z,29.81
2018-10-06T19:13:02.842Z,29.83
2018-10-06T19:15:29.588Z,29.89
2018-10-06T19:17:56.203Z,29.88
2018-10-06T19:20:22.851Z,29.93
2018-10-06T19:22:49.536Z,29.96
2018-10-06T19:25:16.146Z,30.00
2018-10-06T19:27:43.009Z,30.03
2018-10-06T19:30:09.680Z,30.01
2018-10-06T19:32:36.352Z,30.04
2018-10-06T19:35:03.046Z,30.01
2018-10-06T19:37:29.731Z,30.06
2018-10-06T19:39:56.403Z,30.16
2018-10-06T19:42:23.044Z,30.12
2018-10-06T19:44:49.697Z,30.13
2018-10-06T19:47:16.438Z,30.14
2018-10-06T19:49:43.082Z,30.13
2018-10-06T19:52:11.822Z,30.17
2018-10-06T19:54:36.436Z,30.16
2018-10-06T19:57:05.197Z,30.16
2018-10-06T19:59:29.770Z,30.33
2018-10-06T20:01:56.379Z,30.16
2018-10-06T20:04:23.113Z,30.19
2018-10-06T20:06:52.422Z,30.15
2018-10-06T20:09:19.064Z,30.22
2018-10-06T20:11:45.739Z,30.35
2018-10-06T20:14:13.722Z,30.24
2018-10-06T20:16:39.041Z,30.29
2018-10-06T20:19:05.812Z,30.37
2018-10-06T20:21:37.105Z,30.37
2018-10-06T20:23:59.117Z,30.47
2018-10-06T20:26:25.772Z,30.40
2018-10-06T20:28:52.416Z,30.44
2018-10-06T20:31:19.060Z,30.38
2018-10-06T20:33:45.744Z,30.47
2018-10-06T20:36:12.361Z,30.51
2018-10-06T20:38:39.113Z,30.52
2018-10-06T20:41:05.751Z,30.45
2018-10-06T20:43:32.413Z,30.38
2018-10-06T20:46:00.418Z,30.55
2018-10-06T20:48:25.719Z,30.62
2018-10-06T20:50:52.360Z,30.59
2018-10-06T20:53:19.146Z,30.52
2018-10-06T20:55:45.758Z,30.59
2018-10-06T20:58:12.405Z,30.59
2018-10-06T21:00:39.059Z,30.69
2018-10-06T21:03:07.609Z,30.58
2018-10-06T21:05:34.266Z,30.50
2018-10-06T21:08:00.944Z,30.70
2018-10-06T21:10:28.907Z,30.72
2018-10-06T21:12:54.344Z,30.63
2018-10-06T21:15:25.301Z,30.64
2018-10-06T21:17:49.389Z,30.72
2018-10-06T21:20:14.514Z,30.69
2018-10-06T21:22:41.166Z,30.70
2018-10-06T21:25:07.803Z,30.68
2018-10-06T21:27:34.447Z,30.81
2018-10-06T21:30:01.090Z,30.79
2018-10-06T21:32:27.867Z,30.85
2018-10-06T21:34:54.510Z,30.79
2018-10-06T21:37:21.165Z,30.80
2018-10-06T21:39:47.848Z,30.82
2018-10-06T21:42:14.577Z,30.79
2018-10-06T21:44:41.217Z,30.78
2018-10-06T21:47:07.857Z,30.90
2018-10-06T21:49:34.665Z,30.77
2018-10-06T21:52:01.357Z,30.86
2018-10-06T21:54:27.995Z,30.90
2018-10-06T21:56:54.647Z,30.93
2018-10-06T21:59:21.390Z,30.86
2018-10-06T22:01:48.128Z,30.91
2018-10-06T22:04:15.666Z,30.96
2018-10-06T22:06:45.203Z,30.87
2018-10-06T22:09:11.939Z,30.88
2018-10-06T22:11:38.651Z,30.87
2018-10-06T22:14:05.297Z,30.95
2018-10-06T22:16:32.009Z,30.97
2018-10-06T22:18:58.628Z,30.96
2018-10-06T22:21:25.396Z,30.96
2018-10-06T22:23:55.081Z,30.96
2018-10-06T22:26:21.722Z,31.00
2018-10-06T22:28:48.384Z,31.06
2018-10-06T22:31:15.027Z,30.97
2018-10-06T22:33:41.750Z,30.94
2018-10-06T22:36:08.365Z,31.08
2018-10-06T22:38:35.063Z,31.02
2018-10-06T22:41:01.792Z,30.98
2018-10-06T22:43:29.918Z,31.07
2018-10-06T22:45:57.284Z,31.04
2018-10-06T22:48:26.899Z,31.06
2018-10-06T22:50:51.400Z,31.08
2018-10-06T22:53:18.056Z,31.05
2018-10-06T22:55:44.794Z,31.21
2018-10-06T22:58:11.449Z,31.01
2018-10-06T23:00:38.142Z,31.09
2018-10-06T23:03:06.160Z,31.17
2018-10-06T23:05:31.483Z,31.18
2018-10-06T23:07:58.250Z,31.15
2018-10-06T23:10:24.943Z,31.24
2018-10-06T23:12:51.617Z,31.24
2018-10-06T23:15:18.321Z,31.20
2018-10-06T23:17:45.016Z,31.21
2018-10-06T23:20:11.653Z,31.25
2018-10-06T23:22:38.308Z,31.24
2018-10-06T23:25:05.246Z,31.22
2018-10-06T23:27:31.930Z,31.27
2018-10-06T23:29:58.575Z,31.23
2018-10-06T23:32:25.239Z,31.27
2018-10-06T23:34:51.992Z,31.40
2018-10-06T23:37:18.631Z,31.35
2018-10-06T23:39:45.319Z,31.32
2018-10-06T23:42:16.204Z,31.30
2018-10-06T23:44:41.875Z,31.39
2018-10-06T23:47:08.536Z,31.44
2018-10-06T23:49:35.232Z,31.34
2018-10-06T23:52:01.925Z,31.41
2018-10-06T23:54:30.140Z,31.43
2018-10-06T23:56:55.316Z,31.47
2018-10-06T23:59:21.960Z,31.49
